Time;durP1;ratioP1;P1;durP2;ratioP2;P2;SDS_P1;SDS_P2;PMS_P1;PMS_P2;Temp;Humidity;BMP_temperature;BMP_pressure;BME280_temperature;BME280_humidity;BME280_pressure;Samples;Min_cycle;Max_cycle;Signal;HPM_P1;HPM_P2
2023/04/26 00:02:28;;;;;;;;;;;4.20;99.90;;;;;;5096592;28;20015;-72
2023/04/26 00:04:54;;;;;;;;;;;4.20;99.90;;;;;;5114540;28;20432;-72
2023/04/26 00:07:23;;;;;;;;;;;4.30;99.90;;;;;;5114178;28;19976;-72
2023/04/26 00:09:49;;;;;;;;;;;4.40;99.90;;;;;;5096334;28;20375;-72
2023/04/26 00:12:15;;;;;;;;;;;4.50;99.90;;;;;;5096247;28;20434;-71
2023/04/26 00:14:40;;;;;;;;;;;4.60;99.90;;;;;;5095727;28;20011;-72
2023/04/26 00:17:09;;;;;;;;;;;4.70;99.90;;;;;;5096369;28;19923;-72
2023/04/26 00:19:35;;;;;;;;;;;4.70;99.90;;;;;;5096472;28;19981;-72
2023/04/26 00:22:01;;;;;;;;;;;5.10;99.90;;;;;;5095319;28;20019;-72
2023/04/26 00:24:27;;;;;;;;;;;4.80;99.90;;;;;;5096383;28;20014;-71
2023/04/26 00:26:56;;;;;;;;;;;4.90;99.90;;;;;;5114082;28;20386;-72
2023/04/26 00:29:21;;;;;;;;;;;4.80;99.90;;;;;;5113296;28;19924;-72
2023/04/26 00:31:47;;;;;;;;;;;4.80;99.90;;;;;;5096575;28;19958;-72
2023/04/26 00:34:12;;;;;;;;;;;5.50;99.90;;;;;;5114397;28;19962;-72
2023/04/26 00:36:41;;;;;;;;;;;4.70;99.90;;;;;;5094933;28;19923;-72
2023/04/26 00:39:09;;;;;;;;;;;4.60;99.90;;;;;;5096574;28;19928;-72
2023/04/26 00:41:35;;;;;;;;;;;4.50;99.90;;;;;;5114586;28;19967;-72
2023/04/26 00:44:04;;;;;;;;;;;4.50;99.90;;;;;;5094905;28;19924;-71
2023/04/26 00:46:32;;;;;;;;;;;4.40;99.90;;;;;;5095733;28;20267;-72
2023/04/26 00:48:58;;;;;;;;;;;4.40;99.90;;;;;;5095518;28;19928;-72
2023/04/26 00:51:23;;;;;;;;;;;4.30;99.90;;;;;;5113379;28;19931;-71
2023/04/26 00:53:49;;;;;;;;;;;4.30;99.90;;;;;;5113757;28;20355;-71
2023/04/26 00:56:15;;;;;;;;;;;4.50;99.90;;;;;;5095476;28;20006;-71
2023/04/26 00:58:40;;;;;;;;;;;4.20;99.90;;;;;;5094691;28;19924;-71
2023/04/26 01:01:09;;;;;;;;;;;4.10;99.90;;;;;;5095315;28;19946;-71
2023/04/26 01:03:35;;;;;;;;;;;4.00;99.90;;;;;;5095375;28;20011;-72
2023/04/26 01:06:02;;;;;;;;;;;4.00;99.90;;;;;;5112834;28;20014;-72
2023/04/26 01:08:27;;;;;;;;;;;4.00;99.90;;;;;;5113906;28;19930;-72
2023/04/26 01:10:53;;;;;;;;;;;4.00;99.90;;;;;;5112991;28;19923;-71
2023/04/26 01:13:19;;;;;;;;;;;4.00;99.90;;;;;;5113912;28;20006;-71
2023/04/26 01:15:45;;;;;;;;;;;4.00;99.90;;;;;;5095171;28;19966;-71
2023/04/26 01:18:11;;;;;;;;;;;4.00;99.90;;;;;;5094865;28;19931;-71
2023/04/26 01:20:36;;;;;;;;;;;4.00;99.90;;;;;;5095100;28;20019;-71
2023/04/26 01:23:02;;;;;;;;;;;4.00;99.90;;;;;;5094992;28;19924;-72
2023/04/26 01:25:28;;;;;;;;;;;4.00;99.90;;;;;;5093960;28;20014;-72
2023/04/26 01:27:53;;;;;;;;;;;4.00;99.90;;;;;;5095329;28;20023;-72
2023/04/26 01:30:21;;;;;;;;;;;4.00;99.90;;;;;;5113428;28;19927;-72
2023/04/26 01:32:47;;;;;;;;;;;3.90;99.90;;;;;;5113089;28;19998;-71
2023/04/26 01:35:12;;;;;;;;;;;3.90;99.90;;;;;;5094655;28;20018;-72
2023/04/26 01:37:38;;;;;;;;;;;3.90;99.90;;;;;;5095310;28;19928;-72
2023/04/26 01:40:05;;;;;;;;;;;3.90;99.90;;;;;;5094902;28;19977;-72
2023/04/26 01:42:31;;;;;;;;;;;3.90;99.90;;;;;;5095526;28;20359;-71
2023/04/26 01:44:57;;;;;;;;;;;3.80;99.90;;;;;;5094579;28;19924;-72
2023/04/26 01:47:22;;;;;;;;;;;3.80;99.90;;;;;;5114316;28;20405;-71
2023/04/26 01:49:48;;;;;;;;;;;3.80;99.90;;;;;;5099290;28;19932;-72
2023/04/26 01:52:13;;;;;;;;;;;3.80;99.90;;;;;;5117464;28;20015;-72
2023/04/26 01:54:39;;;;;;;;;;;3.80;99.90;;;;;;5098698;28;20280;-72
2023/04/26 01:57:04;;;;;;;;;;;3.80;99.90;;;;;;5116538;28;20398;-71
2023/04/26 01:59:30;;;;;;;;;;;4.30;99.90;;;;;;5117891;28;19924;-71
2023/04/26 02:01:58;;;;;;;;;;;4.20;99.90;;;;;;5097776;28;19930;-71
2023/04/26 02:04:27;;;;;;;;;;;3.70;99.90;;;;;;5117761;28;19927;-72
2023/04/26 02:06:52;;;;;;;;;;;3.70;99.90;;;;;;5097907;28;19924;-72
2023/04/26 02:09:18;;;;;;;;;;;3.60;99.90;;;;;;5099025;28;20286;-72
2023/04/26 02:11:44;;;;;;;;;;;3.60;99.90;;;;;;5117689;28;19931;-71
2023/04/26 02:14:12;;;;;;;;;;;3.60;99.90;;;;;;5098129;28;19974;-72
2023/04/26 02:16:39;;;;;;;;;;;3.60;99.90;;;;;;5098600;28;19982;-71
2023/04/26 02:19:09;;;;;;;;;;;3.70;99.90;;;;;;5098545;28;19928;-72
2023/04/26 02:21:51;;;;;;;;;;;3.70;99.90;;;;;;5097773;28;19985;-71
2023/04/26 02:24:17;;;;;;;;;;;3.70;99.90;;;;;;5097497;28;19924;-71
2023/04/26 02:26:42;;;;;;;;;;;3.70;99.90;;;;;;5098214;28;19947;-72
2023/04/26 02:29:08;;;;;;;;;;;3.70;99.90;;;;;;5115662;28;19927;-72
2023/04/26 02:31:33;;;;;;;;;;;3.70;99.90;;;;;;5116466;28;20298;-72
2023/04/26 02:33:59;;;;;;;;;;;3.60;99.90;;;;;;5098191;28;19920;-71
2023/04/26 02:36:24;;;;;;;;;;;3.60;99.90;;;;;;5115718;28;19931;-72
2023/04/26 02:38:50;;;;;;;;;;;3.60;99.90;;;;;;5098216;28;19969;-71
2023/04/26 02:41:16;;;;;;;;;;;3.60;99.90;;;;;;5116388;28;19965;-71
2023/04/26 02:43:41;;;;;;;;;;;3.60;99.90;;;;;;5115796;28;20014;-72
2023/04/26 02:46:07;;;;;;;;;;;5.10;99.90;;;;;;5116380;28;19928;-72
2023/04/26 02:48:32;;;;;;;;;;;3.50;99.90;;;;;;5116728;28;20006;-72
2023/04/26 02:50:58;;;;;;;;;;;3.40;99.90;;;;;;5097433;28;19975;-72
2023/04/26 02:53:23;;;;;;;;;;;3.40;99.90;;;;;;5116389;28;20357;-71
2023/04/26 02:55:50;;;;;;;;;;;3.40;99.90;;;;;;5098526;28;19930;-72
2023/04/26 02:58:16;;;;;;;;;;;3.30;99.90;;;;;;5114907;28;20018;-72
2023/04/26 03:00:46;;;;;;;;;;;3.20;99.90;;;;;;5097502;28;20022;-72
2023/04/26 03:03:12;;;;;;;;;;;3.20;99.90;;;;;;5115156;28;19928;-72
2023/04/26 03:05:37;;;;;;;;;;;3.20;99.90;;;;;;5116266;28;19927;-72
2023/04/26 03:08:03;;;;;;;;;;;3.20;99.90;;;;;;5097631;28;19931;-72
2023/04/26 03:10:28;;;;;;;;;;;3.20;99.90;;;;;;5115243;28;19924;-72
2023/04/26 03:12:54;;;;;;;;;;;3.20;99.90;;;;;;5115652;28;19931;-72
2023/04/26 03:15:19;;;;;;;;;;;3.30;99.90;;;;;;5098025;28;19928;-71
2023/04/26 03:17:45;;;;;;;;;;;3.40;99.90;;;;;;5096701;28;19924;-72
2023/04/26 03:20:11;;;;;;;;;;;3.40;99.90;;;;;;5097091;28;19927;-72
2023/04/26 03:22:36;;;;;;;;;;;3.50;99.90;;;;;;5097564;28;19953;-72
2023/04/26 03:25:02;;;;;;;;;;;3.60;99.90;;;;;;5114823;28;20022;-72
2023/04/26 03:27:28;;;;;;;;;;;3.70;99.90;;;;;;5097410;28;20301;-72
2023/04/26 03:29:53;;;;;;;;;;;5.50;99.90;;;;;;5115465;28;20010;-72
2023/04/26 03:32:19;;;;;;;;;;;3.80;99.90;;;;;;5096496;28;20010;-72
2023/04/26 03:34:46;;;;;;;;;;;3.90;99.90;;;;;;5097768;28;20260;-72
2023/04/26 03:37:12;;;;;;;;;;;3.90;99.90;;;;;;5115470;28;19923;-72
2023/04/26 03:39:37;;;;;;;;;;;4.00;99.90;;;;;;5096446;28;19927;-72
2023/04/26 03:42:03;;;;;;;;;;;4.00;99.90;;;;;;5115088;28;20002;-72
2023/04/26 03:44:28;;;;;;;;;;;4.00;99.90;;;;;;5097093;28;20271;-72
2023/04/26 03:46:54;;;;;;;;;;;4.00;99.90;;;;;;5114233;28;20018;-72
2023/04/26 03:49:20;;;;;;;;;;;3.90;99.90;;;;;;5115366;28;19924;-72
2023/04/26 03:51:46;;;;;;;;;;;3.90;99.90;;;;;;5097291;28;19923;-72
2023/04/26 03:54:12;;;;;;;;;;;3.90;99.90;;;;;;5095914;28;20379;-72
2023/04/26 03:56:38;;;;;;;;;;;3.80;99.90;;;;;;5096854;28;19988;-72
2023/04/26 03:59:04;;;;;;;;;;;3.80;99.90;;;;;;5096206;28;20042;-72
2023/04/26 04:01:30;;;;;;;;;;;4.80;99.90;;;;;;5114119;28;20501;-72
2023/04/26 04:03:56;;;;;;;;;;;3.80;99.90;;;;;;5097066;28;19930;-72
2023/04/26 04:06:21;;;;;;;;;;;3.80;99.90;;;;;;5096240;28;20372;-72
2023/04/26 04:08:47;;;;;;;;;;;4.50;99.90;;;;;;5095617;28;19943;-72
2023/04/26 04:11:12;;;;;;;;;;;3.60;99.90;;;;;;5095159;28;19931;-72
2023/04/26 04:13:38;;;;;;;;;;;3.60;99.90;;;;;;5114646;28;20328;-72
2023/04/26 04:16:04;;;;;;;;;;;3.50;99.90;;;;;;5095751;28;20022;-72
2023/04/26 04:18:33;;;;;;;;;;;3.40;99.90;;;;;;5114412;28;19927;-72
2023/04/26 04:20:58;;;;;;;;;;;3.40;99.90;;;;;;5113806;28;19928;-71
2023/04/26 04:23:24;;;;;;;;;;;3.40;99.90;;;;;;5114398;28;19923;-72
2023/04/26 04:25:49;;;;;;;;;;;3.30;99.90;;;;;;5096628;28;19966;-72
2023/04/26 04:28:15;;;;;;;;;;;3.30;99.90;;;;;;5113874;28;19945;-72
2023/04/26 04:30:42;;;;;;;;;;;3.30;99.90;;;;;;5096313;28;19928;-72
2023/04/26 04:33:08;;;;;;;;;;;3.30;99.90;;;;;;5113970;28;20303;-72
2023/04/26 04:35:34;;;;;;;;;;;3.30;99.90;;;;;;5095573;28;19977;-72
2023/04/26 04:38:00;;;;;;;;;;;3.30;99.90;;;;;;5096060;28;20371;-72
2023/04/26 04:40:29;;;;;;;;;;;3.30;99.90;;;;;;5113771;28;20006;-71
2023/04/26 04:42:54;;;;;;;;;;;3.30;99.90;;;;;;5113422;28;20022;-72
2023/04/26 04:45:20;;;;;;;;;;;3.30;99.90;;;;;;5095787;28;19923;-72
2023/04/26 04:47:46;;;;;;;;;;;3.80;99.90;;;;;;5114156;28;20272;-72
2023/04/26 04:50:11;;;;;;;;;;;3.30;99.90;;;;;;5094466;28;19977;-71
2023/04/26 04:52:37;;;;;;;;;;;3.30;99.90;;;;;;5114510;28;19931;-72
2023/04/26 04:55:03;;;;;;;;;;;3.30;99.90;;;;;;5095610;28;19931;-71
2023/04/26 04:57:30;;;;;;;;;;;3.30;99.90;;;;;;5113339;28;19931;-72
2023/04/26 04:59:56;;;;;;;;;;;3.30;99.90;;;;;;5113182;28;19981;-72
2023/04/26 05:02:24;;;;;;;;;;;3.30;99.90;;;;;;5113991;28;20012;-72
2023/04/26 05:04:54;;;;;;;;;;;3.40;99.90;;;;;;5094917;28;20000;-72
2023/04/26 05:07:19;;;;;;;;;;;3.30;99.90;;;;;;5114574;28;19931;-72
2023/04/26 05:09:45;;;;;;;;;;;3.60;99.90;;;;;;5094674;28;19923;-72
2023/04/26 05:12:10;;;;;;;;;;;3.30;99.90;;;;;;5114288;28;19935;-72
2023/04/26 05:14:39;;;;;;;;;;;3.40;99.90;;;;;;5095469;28;20010;-72
2023/04/26 05:17:05;;;;;;;;;;;3.40;99.90;;;;;;5112709;28;19928;-71
2023/04/26 05:19:30;;;;;;;;;;;3.40;99.90;;;;;;5095055;28;20328;-72
2023/04/26 05:21:56;;;;;;;;;;;3.40;99.90;;;;;;5094953;28;19923;-72
2023/04/26 05:24:22;;;;;;;;;;;3.50;99.90;;;;;;5094658;28;19967;-72
2023/04/26 05:26:47;;;;;;;;;;;3.90;99.90;;;;;;5113698;28;20294;-72
2023/04/26 05:29:13;;;;;;;;;;;5.30;99.90;;;;;;5094857;28;20434;-72
2023/04/26 05:31:38;;;;;;;;;;;4.00;99.90;;;;;;5112669;28;20298;-72
2023/04/26 05:34:04;;;;;;;;;;;3.80;99.90;;;;;;5095126;28;20018;-72
2023/04/26 05:36:31;;;;;;;;;;;4.00;99.90;;;;;;5113181;28;19927;-72
2023/04/26 05:38:56;;;;;;;;;;;4.10;99.90;;;;;;5112046;28;19924;-72
2023/04/26 05:41:28;;;;;;;;;;;4.10;99.90;;;;;;5095181;28;19969;-73
2023/04/26 05:43:53;;;;;;;;;;;4.30;99.90;;;;;;5094957;28;19947;-73
2023/04/26 05:46:21;;;;;;;;;;;4.30;99.90;;;;;;5094246;28;20375;-73
2023/04/26 05:48:47;;;;;;;;;;;4.40;99.90;;;;;;5095032;28;19959;-73
2023/04/26 05:51:12;;;;;;;;;;;4.90;99.90;;;;;;5113042;28;20023;-73
2023/04/26 05:53:38;;;;;;;;;;;4.80;99.90;;;;;;5094416;28;19935;-73
2023/04/26 05:56:04;;;;;;;;;;;4.90;99.90;;;;;;5112789;28;19923;-73
2023/04/26 05:58:30;;;;;;;;;;;5.00;99.90;;;;;;5112907;28;19930;-73
2023/04/26 06:00:56;;;;;;;;;;;5.00;99.90;;;;;;5093756;28;19930;-73
2023/04/26 06:03:21;;;;;;;;;;;5.10;99.90;;;;;;5113428;28;20014;-73
2023/04/26 06:05:47;;;;;;;;;;;5.60;99.90;;;;;;5094524;28;19978;-73
2023/04/26 06:08:12;;;;;;;;;;;5.40;99.90;;;;;;5094451;28;20018;-73
2023/04/26 06:10:38;;;;;;;;;;;5.50;99.90;;;;;;5112646;28;20398;-74
2023/04/26 06:13:04;;;;;;;;;;;6.20;99.90;;;;;;5112052;28;19946;-73
2023/04/26 06:15:30;;;;;;;;;;;5.70;99.90;;;;;;5095374;28;19930;-73
2023/04/26 06:17:56;;;;;;;;;;;5.80;99.90;;;;;;5094347;28;19924;-73
2023/04/26 06:20:22;;;;;;;;;;;6.30;99.90;;;;;;5112248;28;19977;-73
2023/04/26 06:22:47;;;;;;;;;;;6.10;99.90;;;;;;5113558;28;19977;-73
2023/04/26 06:25:13;;;;;;;;;;;6.30;99.90;;;;;;5112493;28;19931;-73
2023/04/26 06:27:39;;;;;;;;;;;6.40;99.90;;;;;;5093188;28;20363;-73
2023/04/26 06:30:06;;;;;;;;;;;6.60;99.90;;;;;;5112828;28;19945;-73
2023/04/26 06:32:35;;;;;;;;;;;6.70;99.90;;;;;;5093077;28;19924;-73
2023/04/26 06:35:03;;;;;;;;;;;6.80;99.90;;;;;;5095498;28;19930;-73
2023/04/26 06:37:29;;;;;;;;;;;6.90;99.90;;;;;;5109272;28;19928;-73
2023/04/26 06:39:54;;;;;;;;;;;6.90;99.90;;;;;;5098407;28;20389;-73
2023/04/26 06:42:20;;;;;;;;;;;7.20;99.90;;;;;;5097262;28;19919;-73
2023/04/26 06:44:45;;;;;;;;;;;7.00;99.90;;;;;;5116677;28;19923;-73
2023/04/26 06:47:11;;;;;;;;;;;7.00;99.90;;;;;;5097809;28;19924;-73
2023/04/26 06:49:36;;;;;;;;;;;7.10;99.90;;;;;;5115653;28;19985;-73
2023/04/26 06:52:02;;;;;;;;;;;7.20;99.90;;;;;;5115663;28;19931;-73
2023/04/26 06:54:31;;;;;;;;;;;7.30;99.90;;;;;;5098038;28;19928;-73
2023/04/26 06:56:57;;;;;;;;;;;7.50;99.90;;;;;;5115368;28;20018;-73
2023/04/26 06:59:22;;;;;;;;;;;7.60;99.90;;;;;;5116193;28;20003;-74
2023/04/26 07:01:48;;;;;;;;;;;7.70;99.90;;;;;;5116051;28;20011;-74
2023/04/26 07:04:14;;;;;;;;;;;7.90;99.90;;;;;;5096869;28;19924;-73
2023/04/26 07:06:40;;;;;;;;;;;8.10;99.90;;;;;;5116398;28;19923;-73
2023/04/26 07:09:06;;;;;;;;;;;8.70;99.90;;;;;;5097699;28;19976;-73
2023/04/26 07:11:33;;;;;;;;;;;9.10;99.90;;;;;;5097551;28;19931;-74
2023/04/26 07:13:58;;;;;;;;;;;8.70;99.90;;;;;;5115888;28;19928;-73
2023/04/26 07:16:25;;;;;;;;;;;8.70;99.90;;;;;;5115072;28;19924;-73
2023/04/26 07:18:56;;;;;;;;;;;8.80;99.90;;;;;;5115703;28;19924;-73
2023/04/26 07:21:22;;;;;;;;;;;9.00;99.90;;;;;;5115521;28;19923;-73
2023/04/26 07:23:48;;;;;;;;;;;9.00;99.90;;;;;;5097028;28;19947;-73
2023/04/26 07:26:13;;;;;;;;;;;9.10;99.90;;;;;;5097033;28;20450;-73
2023/04/26 07:28:39;;;;;;;;;;;9.30;99.90;;;;;;5115945;28;20018;-73
2023/04/26 07:31:04;;;;;;;;;;;9.30;99.90;;;;;;5114437;28;19924;-73
2023/04/26 07:33:30;;;;;;;;;;;9.50;99.90;;;;;;5097414;28;19927;-74
2023/04/26 07:35:56;;;;;;;;;;;9.70;99.90;;;;;;5115401;28;19930;-74
2023/04/26 07:38:22;;;;;;;;;;;10.10;99.90;;;;;;5114539;28;20336;-74
2023/04/26 07:40:47;;;;;;;;;;;10.20;99.90;;;;;;5115605;28;20006;-74
2023/04/26 07:43:14;;;;;;;;;;;10.00;99.90;;;;;;5096640;28;19946;-73
2023/04/26 07:45:43;;;;;;;;;;;9.90;99.90;;;;;;5113335;28;20375;-72
2023/04/26 07:48:08;;;;;;;;;;;9.80;99.90;;;;;;5114996;28;20019;-72
2023/04/26 07:50:34;;;;;;;;;;;9.90;99.90;;;;;;5097248;28;19973;-72
2023/04/26 07:52:59;;;;;;;;;;;10.00;99.90;;;;;;5095361;28;20327;-72
2023/04/26 07:55:25;;;;;;;;;;;9.80;99.90;;;;;;5096429;28;19924;-72
2023/04/26 07:57:50;;;;;;;;;;;9.60;99.90;;;;;;5096448;28;19928;-72
2023/04/26 08:00:17;;;;;;;;;;;9.30;99.90;;;;;;5096011;28;19969;-72
2023/04/26 08:02:45;;;;;;;;;;;9.00;99.90;;;;;;5114626;28;19931;-72
2023/04/26 08:05:11;;;;;;;;;;;8.80;99.90;;;;;;5096271;28;19934;-72
2023/04/26 08:07:37;;;;;;;;;;;8.50;99.90;;;;;;5114111;28;19931;-72
2023/04/26 08:10:05;;;;;;;;;;;8.40;99.90;;;;;;5096038;28;20082;-72
2023/04/26 08:12:32;;;;;;;;;;;8.20;99.90;;;;;;5113869;28;19931;-72
2023/04/26 08:14:58;;;;;;;;;;;8.10;99.90;;;;;;5114297;28;19924;-72
2023/04/26 08:17:24;;;;;;;;;;;8.30;99.90;;;;;;5096584;28;20264;-72
2023/04/26 08:19:49;;;;;;;;;;;8.20;99.90;;;;;;5114201;28;20014;-72
2023/04/26 08:22:15;;;;;;;;;;;8.20;99.90;;;;;;5095731;28;20430;-72
2023/04/26 08:24:40;;;;;;;;;;;8.40;99.90;;;;;;5096018;28;19930;-72
2023/04/26 08:27:06;;;;;;;;;;;8.60;99.90;;;;;;5095113;28;19930;-73
2023/04/26 08:29:31;;;;;;;;;;;9.00;99.90;;;;;;5114443;28;19934;-73
2023/04/26 08:31:57;;;;;;;;;;;9.40;99.90;;;;;;5095410;28;19928;-73
2023/04/26 08:34:23;;;;;;;;;;;10.10;99.90;;;;;;5095532;28;19930;-73
2023/04/26 08:36:48;;;;;;;;;;;10.60;99.90;;;;;;5095762;28;19927;-73
2023/04/26 08:39:16;;;;;;;;;;;11.30;99.90;;;;;;5096199;28;19924;-73
2023/04/26 08:41:48;;;;;;;;;;;11.70;99.90;;;;;;5113639;28;19923;-73
2023/04/26 08:44:14;;;;;;;;;;;11.90;99.90;;;;;;5095361;28;19931;-73
2023/04/26 08:46:45;;;;;;;;;;;11.90;99.90;;;;;;5114014;28;19927;-72
2023/04/26 08:49:16;;;;;;;;;;;11.90;99.90;;;;;;5094785;28;19978;-73
2023/04/26 08:51:43;;;;;;;;;;;12.00;99.90;;;;;;5095818;28;19924;-73
2023/04/26 08:54:09;;;;;;;;;;;12.20;99.90;;;;;;5095486;28;19935;-73
2023/04/26 08:56:36;;;;;;;;;;;12.30;99.90;;;;;;5094689;28;19949;-73
2023/04/26 08:59:01;;;;;;;;;;;12.20;99.90;;;;;;5091831;28;19924;-72
2023/04/26 09:01:27;;;;;;;;;;;12.30;99.90;;;;;;5093722;28;19930;-73
2023/04/26 09:03:54;;;;;;;;;;;12.30;99.90;;;;;;5091306;28;20293;-73
2023/04/26 09:06:20;;;;;;;;;;;12.30;99.90;;;;;;5092327;28;19925;-73
2023/04/26 09:08:46;;;;;;;;;;;13.00;99.90;;;;;;5091632;28;20015;-72
2023/04/26 09:11:11;;;;;;;;;;;12.10;99.70;;;;;;5093390;28;20019;-72
2023/04/26 09:13:37;;;;;;;;;;;11.80;99.90;;;;;;5092283;28;19970;-72
2023/04/26 09:16:03;;;;;;;;;;;12.40;99.90;;;;;;5092176;28;19927;-72
2023/04/26 09:18:30;;;;;;;;;;;11.40;99.90;;;;;;5093404;28;19935;-72
2023/04/26 09:21:06;;;;;;;;;;;11.30;99.90;;;;;;5091670;28;19923;-73
2023/04/26 09:23:32;;;;;;;;;;;11.00;99.90;;;;;;5091545;28;19924;-73
2023/04/26 09:26:19;;;;;;;;;;;11.00;99.90;;;;;;5093101;28;19924;-73
2023/04/26 09:28:46;;;;;;;;;;;11.10;99.90;;;;;;5092130;28;20010;-73
2023/04/26 09:31:21;;;;;;;;;;;11.50;99.90;;;;;;5090637;28;19970;-74
2023/04/26 09:33:56;;;;;;;;;;;11.70;99.90;;;;;;5091880;28;19931;-73
2023/04/26 09:36:25;;;;;;;;;;;11.90;99.90;;;;;;5093426;28;19920;-72
2023/04/26 09:38:50;;;;;;;;;;;12.10;99.90;;;;;;5091940;28;19924;-73
2023/04/26 09:41:16;;;;;;;;;;;12.20;99.90;;;;;;5093374;28;19950;-73
2023/04/26 09:43:41;;;;;;;;;;;12.20;99.90;;;;;;5091861;28;19969;-74
2023/04/26 09:46:07;;;;;;;;;;;12.50;99.90;;;;;;5092112;28;19924;-74
2023/04/26 09:48:33;;;;;;;;;;;12.50;99.90;;;;;;5091334;28;19985;-74
2023/04/26 09:51:08;;;;;;;;;;;12.40;99.90;;;;;;5090633;28;19928;-74
2023/04/26 09:53:35;;;;;;;;;;;12.60;98.90;;;;;;5093315;28;19924;-75
2023/04/26 09:56:10;;;;;;;;;;;13.00;97.90;;;;;;5091833;28;19924;-75
2023/04/26 09:58:37;;;;;;;;;;;14.20;99.90;;;;;;5090560;28;19924;-75
2023/04/26 10:01:03;;;;;;;;;;;15.20;96.50;;;;;;5092644;28;20301;-75
2023/04/26 10:03:30;;;;;;;;;;;15.90;95.00;;;;;;5090798;28;19932;-75
2023/04/26 10:05:56;;;;;;;;;;;16.00;90.50;;;;;;5092017;28;19924;-74
2023/04/26 10:08:22;;;;;;;;;;;15.90;91.30;;;;;;5094151;28;19947;-74
2023/04/26 10:10:48;;;;;;;;;;;15.80;91.10;;;;;;5096038;28;19970;-74
2023/04/26 10:13:15;;;;;;;;;;;15.90;90.90;;;;;;5095563;28;20434;-75
2023/04/26 10:15:40;;;;;;;;;;;16.50;91.00;;;;;;5096721;28;20356;-75
2023/04/26 10:18:07;;;;;;;;;;;17.10;88.70;;;;;;5096178;28;19985;-75
2023/04/26 10:20:33;;;;;;;;;;;17.90;90.80;;;;;;5094636;28;20380;-75
2023/04/26 10:23:00;;;;;;;;;;;18.30;87.50;;;;;;5094891;28;19928;-74
2023/04/26 10:25:40;;;;;;;;;;;18.00;87.00;;;;;;5095291;28;20394;-74
2023/04/26 10:28:06;;;;;;;;;;;17.40;85.70;;;;;;5095696;28;19924;-74
2023/04/26 10:30:32;;;;;;;;;;;17.10;88.30;;;;;;5096464;28;19924;-74
2023/04/26 10:32:57;;;;;;;;;;;16.70;87.80;;;;;;5095762;28;20372;-74
2023/04/26 10:35:29;;;;;;;;;;;16.30;88.20;;;;;;5094675;28;19924;-74
2023/04/26 10:37:57;;;;;;;;;;;15.90;87.70;;;;;;5095122;28;19931;-74
2023/04/26 10:40:24;;;;;;;;;;;15.20;86.60;;;;;;5094362;28;20300;-73
2023/04/26 10:42:50;;;;;;;;;;;14.70;90.50;;;;;;5094658;28;19924;-74
2023/04/26 10:45:26;;;;;;;;;;;14.70;92.40;;;;;;5094546;28;19927;-74
2023/04/26 10:48:10;;;;;;;;;;;14.60;92.10;;;;;;5093658;28;19924;-74
2023/04/26 10:50:56;;;;;;;;;;;14.90;92.00;;;;;;5096346;28;19982;-74
2023/04/26 10:53:22;;;;;;;;;;;15.20;91.50;;;;;;5095423;28;19924;-74
2023/04/26 10:55:47;;;;;;;;;;;15.20;91.60;;;;;;5094252;28;19927;-74
2023/04/26 10:58:29;;;;;;;;;;;15.20;92.30;;;;;;5094235;28;20013;-74
2023/04/26 11:01:05;;;;;;;;;;;15.20;91.50;;;;;;5094529;28;19924;-74
2023/04/26 11:03:30;;;;;;;;;;;15.10;92.30;;;;;;5093216;28;19924;-74
2023/04/26 11:05:56;;;;;;;;;;;14.80;91.80;;;;;;5094972;28;20297;-73
2023/04/26 11:08:31;;;;;;;;;;;14.70;89.90;;;;;;5094014;28;19924;-74
2023/04/26 11:10:57;;;;;;;;;;;14.50;92.20;;;;;;5094245;28;19924;-74
2023/04/26 11:13:22;;;;;;;;;;;14.70;90.80;;;;;;5094443;28;20291;-73
2023/04/26 11:15:52;;;;;;;;;;;14.40;90.80;;;;;;5095158;28;20413;-74
2023/04/26 11:18:18;;;;;;;;;;;14.20;91.10;;;;;;5094147;28;20034;-74
2023/04/26 11:20:44;;;;;;;;;;;14.60;90.00;;;;;;5095952;28;19935;-75
2023/04/26 11:23:10;;;;;;;;;;;14.60;90.50;;;;;;5093159;28;19928;-75
2023/04/26 11:25:37;;;;;;;;;;;14.70;91.70;;;;;;5094292;28;19924;-74
2023/04/26 11:28:07;;;;;;;;;;;15.00;91.00;;;;;;5094248;28;19931;-74
2023/04/26 11:30:32;;;;;;;;;;;15.20;90.10;;;;;;5094240;28;19924;-75
2023/04/26 11:32:59;;;;;;;;;;;15.40;89.60;;;;;;5094740;28;19935;-75
2023/04/26 11:35:25;;;;;;;;;;;15.60;87.20;;;;;;5095315;28;19928;-75
2023/04/26 11:37:51;;;;;;;;;;;15.90;89.30;;;;;;5093236;28;19927;-75
2023/04/26 11:40:20;;;;;;;;;;;16.30;86.70;;;;;;5094058;28;19924;-75
2023/04/26 11:42:46;;;;;;;;;;;16.30;87.00;;;;;;5093205;28;19931;-75
2023/04/26 11:45:15;;;;;;;;;;;16.60;85.60;;;;;;5093393;28;19924;-75
2023/04/26 11:47:40;;;;;;;;;;;17.00;86.30;;;;;;5095160;28;19931;-75
2023/04/26 11:50:07;;;;;;;;;;;17.60;83.50;;;;;;5093733;28;19932;-75
2023/04/26 11:52:33;;;;;;;;;;;17.50;83.40;;;;;;5092999;28;19931;-75
2023/04/26 11:55:06;;;;;;;;;;;17.70;80.80;;;;;;5094153;28;19943;-75
2023/04/26 11:57:34;;;;;;;;;;;17.70;83.00;;;;;;5093080;28;19924;-75
2023/04/26 12:00:09;;;;;;;;;;;18.00;84.20;;;;;;5093753;28;19924;-75
2023/04/26 12:02:35;;;;;;;;;;;18.20;80.60;;;;;;5094592;28;19925;-75
2023/04/26 12:05:02;;;;;;;;;;;18.00;78.70;;;;;;5093719;28;19924;-75
2023/04/26 12:07:31;;;;;;;;;;;17.90;80.50;;;;;;5092613;28;19924;-74
2023/04/26 12:10:07;;;;;;;;;;;17.40;80.50;;;;;;5094274;28;19974;-74
2023/04/26 12:12:32;;;;;;;;;;;17.30;82.00;;;;;;5092230;28;19924;-74
2023/04/26 12:14:58;;;;;;;;;;;17.30;82.30;;;;;;5094096;28;20368;-74
2023/04/26 12:17:26;;;;;;;;;;;16.70;81.50;;;;;;5094792;28;20291;-74
2023/04/26 12:19:52;;;;;;;;;;;16.50;85.70;;;;;;5092114;28;19924;-74
2023/04/26 12:22:19;;;;;;;;;;;15.90;89.70;;;;;;5093131;28;19924;-74
2023/04/26 12:24:46;;;;;;;;;;;14.90;93.90;;;;;;5093596;28;19924;-74
2023/04/26 12:27:19;;;;;;;;;;;14.20;94.70;;;;;;5091205;28;20257;-73
2023/04/26 12:29:45;;;;;;;;;;;13.60;97.40;;;;;;5093137;28;19932;-73
2023/04/26 12:32:13;;;;;;;;;;;12.50;99.90;;;;;;5093413;28;19928;-73
2023/04/26 12:34:39;;;;;;;;;;;12.10;99.90;;;;;;5092095;28;19928;-73
2023/04/26 12:37:05;;;;;;;;;;;11.60;99.90;;;;;;5092409;28;19930;-73
2023/04/26 12:39:30;;;;;;;;;;;11.30;99.90;;;;;;5093478;28;19924;-73
2023/04/26 12:41:56;;;;;;;;;;;11.20;99.90;;;;;;5092592;28;20019;-73
2023/04/26 12:44:21;;;;;;;;;;;11.30;99.90;;;;;;5093858;28;19931;-73
2023/04/26 12:46:47;;;;;;;;;;;11.50;99.90;;;;;;5091254;28;19924;-73
2023/04/26 12:49:12;;;;;;;;;;;11.80;99.90;;;;;;5093369;28;19924;-73
2023/04/26 12:51:38;;;;;;;;;;;12.00;99.90;;;;;;5093600;28;20031;-73
2023/04/26 12:54:03;;;;;;;;;;;12.00;99.90;;;;;;5091208;28;19998;-73
2023/04/26 12:56:29;;;;;;;;;;;12.00;99.90;;;;;;5093488;28;19931;-73
2023/04/26 12:58:55;;;;;;;;;;;12.10;99.90;;;;;;5109311;28;19924;-73
2023/04/26 13:01:20;;;;;;;;;;;12.70;99.90;;;;;;5113094;28;19994;-72
2023/04/26 13:03:46;;;;;;;;;;;12.50;99.30;;;;;;5114061;28;19924;-73
2023/04/26 13:06:11;;;;;;;;;;;12.30;99.60;;;;;;5095169;28;20283;-73
2023/04/26 13:08:37;;;;;;;;;;;12.50;99.90;;;;;;5113051;28;20359;-73
2023/04/26 13:11:03;;;;;;;;;;;12.60;99.90;;;;;;5113217;28;19969;-73
2023/04/26 13:13:28;;;;;;;;;;;12.80;99.30;;;;;;5113917;28;19977;-73
2023/04/26 13:15:54;;;;;;;;;;;12.70;97.80;;;;;;5094211;28;19924;-73
2023/04/26 13:18:19;;;;;;;;;;;12.80;97.50;;;;;;5114014;28;19976;-73
2023/04/26 13:20:45;;;;;;;;;;;12.80;98.70;;;;;;5095673;28;19930;-73
2023/04/26 13:23:10;;;;;;;;;;;12.90;97.10;;;;;;5112551;28;19974;-73
2023/04/26 13:25:36;;;;;;;;;;;12.90;95.80;;;;;;5113113;28;19930;-73
2023/04/26 13:28:02;;;;;;;;;;;13.00;97.90;;;;;;5094902;28;19924;-73
2023/04/26 13:30:28;;;;;;;;;;;13.10;95.50;;;;;;5094691;28;19924;-73
2023/04/26 13:32:53;;;;;;;;;;;13.30;96.60;;;;;;5113258;28;19928;-73
2023/04/26 13:35:19;;;;;;;;;;;13.40;96.30;;;;;;5113703;28;19986;-73
2023/04/26 13:37:45;;;;;;;;;;;13.50;95.90;;;;;;5112172;28;19930;-73
2023/04/26 13:40:10;;;;;;;;;;;13.40;96.20;;;;;;5094738;28;19928;-73
2023/04/26 13:42:36;;;;;;;;;;;13.70;95.30;;;;;;5094189;28;19920;-73
2023/04/26 13:45:05;;;;;;;;;;;13.80;95.30;;;;;;5112428;28;19924;-74
2023/04/26 13:47:30;;;;;;;;;;;14.10;94.00;;;;;;5113087;28;20386;-73
2023/04/26 13:49:56;;;;;;;;;;;14.00;92.90;;;;;;5094322;28;19946;-73
2023/04/26 13:52:21;;;;;;;;;;;14.00;94.10;;;;;;5094160;28;19974;-73
2023/04/26 13:54:47;;;;;;;;;;;14.00;94.50;;;;;;5113201;28;20269;-74
2023/04/26 13:57:13;;;;;;;;;;;14.30;94.30;;;;;;5111930;28;19924;-73
2023/04/26 13:59:39;;;;;;;;;;;14.10;93.70;;;;;;5095101;28;19927;-73
2023/04/26 14:02:05;;;;;;;;;;;14.30;93.50;;;;;;5112914;28;19924;-73
2023/04/26 14:04:30;;;;;;;;;;;14.40;93.70;;;;;;5112292;28;19931;-73
2023/04/26 14:06:57;;;;;;;;;;;14.30;93.10;;;;;;5112599;28;19950;-73
2023/04/26 14:09:22;;;;;;;;;;;13.90;91.70;;;;;;5094830;28;19924;-73
2023/04/26 14:11:48;;;;;;;;;;;13.70;93.00;;;;;;5093751;28;20383;-73
2023/04/26 14:14:13;;;;;;;;;;;13.60;93.20;;;;;;5112647;28;19930;-73
2023/04/26 14:16:39;;;;;;;;;;;13.10;95.10;;;;;;5094649;28;19979;-73
2023/04/26 14:19:04;;;;;;;;;;;12.60;96.70;;;;;;5093633;28;19985;-73
2023/04/26 14:21:30;;;;;;;;;;;12.00;97.00;;;;;;5112992;28;19923;-73